createdAt,value
2022-12-23T00:01:27.669Z,7.90
2022-12-23T00:03:58.754Z,8.25
2022-12-23T00:06:27.400Z,8.63
2022-12-23T00:08:58.740Z,8.02
2022-12-23T00:11:27.910Z,7.75
2022-12-23T00:14:20.498Z,8.30
2022-12-23T00:16:50.668Z,7.72
2022-12-23T00:19:18.890Z,6.95
2022-12-23T00:21:48.310Z,8.50
2022-12-23T00:24:16.239Z,7.18
2022-12-23T00:26:44.234Z,8.00
2022-12-23T00:29:12.129Z,7.82
2022-12-23T00:31:40.438Z,7.75
2022-12-23T00:34:09.678Z,8.00
2022-12-23T00:36:38.283Z,8.00
2022-12-23T00:39:24.709Z,7.97
2022-12-23T00:42:11.066Z,8.82
2022-12-23T00:44:38.875Z,8.52
2022-12-23T00:47:06.717Z,8.77
2022-12-23T00:49:43.567Z,9.00
2022-12-23T00:52:15.561Z,8.43
2022-12-23T00:54:43.651Z,8.73
2022-12-23T00:57:11.796Z,8.20
2022-12-23T00:59:39.574Z,8.88
2022-12-23T01:02:26.529Z,9.77
2022-12-23T01:05:13.379Z,9.90
2022-12-23T01:07:42.505Z,9.93
2022-12-23T01:10:10.642Z,10.38
2022-12-23T01:12:39.711Z,10.40
2022-12-23T01:15:08.217Z,11.13
2022-12-23T01:17:36.028Z,10.80
2022-12-23T01:20:04.211Z,11.15
2022-12-23T01:22:32.067Z,11.55
2022-12-23T01:24:59.907Z,10.10
2022-12-23T01:27:27.741Z,10.98
2022-12-23T01:29:55.610Z,10.25
2022-12-23T01:32:23.440Z,10.25
2022-12-23T01:34:51.394Z,10.70
2022-12-23T01:37:19.302Z,9.68
2022-12-23T01:39:47.172Z,10.73
2022-12-23T01:42:35.940Z,10.27
2022-12-23T01:45:29.616Z,10.02
2022-12-23T01:47:59.220Z,9.80
2022-12-23T01:50:35.337Z,10.50
2022-12-23T01:53:17.576Z,9.82
2022-12-23T01:55:54.393Z,9.80
2022-12-23T01:58:33.080Z,9.55
2022-12-23T02:01:20.025Z,8.73
2022-12-23T02:03:52.916Z,8.77
2022-12-23T02:06:44.765Z,8.40
2022-12-23T02:09:25.231Z,7.82
2022-12-23T02:12:30.153Z,8.48
2022-12-23T02:15:40.169Z,8.50
2022-12-23T02:18:26.266Z,8.30
2022-12-23T02:21:16.694Z,8.85
2022-12-23T02:24:05.548Z,8.50
2022-12-23T02:26:42.164Z,8.80
2022-12-23T02:29:22.198Z,8.32
2022-12-23T02:32:21.814Z,7.00
2022-12-23T02:35:18.225Z,7.32
2022-12-23T02:38:13.563Z,8.15
2022-12-23T02:41:00.331Z,7.43
2022-12-23T02:44:15.571Z,7.63
2022-12-23T02:46:49.865Z,7.35
2022-12-23T02:49:32.217Z,7.60
2022-12-23T02:52:04.944Z,7.80
2022-12-23T02:54:37.323Z,7.20
2022-12-23T02:57:08.554Z,6.90
2022-12-23T02:59:43.567Z,7.55
2022-12-23T03:02:11.448Z,7.82
2022-12-23T03:04:40.377Z,7.68
2022-12-23T03:07:20.677Z,8.23
2022-12-23T03:10:11.840Z,8.05
2022-12-23T03:12:58.159Z,9.25
2022-12-23T03:15:55.372Z,8.85
2022-12-23T03:19:04.912Z,9.45
2022-12-23T03:21:40.656Z,9.98
2022-12-23T03:24:36.004Z,10.50
2022-12-23T03:27:10.104Z,9.73
2022-12-23T03:29:57.844Z,10.73
2022-12-23T03:32:30.897Z,9.57
2022-12-23T03:35:01.925Z,10.32
2022-12-23T03:37:32.910Z,9.85
2022-12-23T03:40:11.980Z,10.38
2022-12-23T03:42:42.157Z,10.02
2022-12-23T03:45:38.802Z,9.50
2022-12-23T03:48:21.452Z,11.18
2022-12-23T03:50:54.802Z,10.85
2022-12-23T03:53:31.408Z,10.52
2022-12-23T03:56:13.294Z,10.98
2022-12-23T03:58:54.669Z,11.68
2022-12-23T04:01:43.610Z,11.77
2022-12-23T04:04:16.080Z,11.05
2022-12-23T04:07:00.487Z,12.35
2022-12-23T04:09:29.081Z,12.17
2022-12-23T04:11:58.810Z,12.20
2022-12-23T04:14:26.741Z,12.82
2022-12-23T04:16:58.346Z,12.00
2022-12-23T04:19:26.308Z,12.18
2022-12-23T04:22:00.019Z,12.50
2022-12-23T04:24:27.985Z,13.02
2022-12-23T04:26:55.868Z,14.07
2022-12-23T04:29:23.710Z,13.68
2022-12-23T04:31:51.676Z,13.77
2022-12-23T04:34:19.584Z,14.77
2022-12-23T04:36:47.551Z,14.73
2022-12-23T04:39:15.623Z,12.63
2022-12-23T04:41:43.456Z,15.25
2022-12-23T04:44:11.255Z,15.55
2022-12-23T04:46:39.089Z,15.93
2022-12-23T04:49:06.993Z,15.25
2022-12-23T04:51:34.962Z,16.08
2022-12-23T04:54:02.891Z,16.35
2022-12-23T04:56:30.714Z,15.45
2022-12-23T04:58:58.837Z,14.57
2022-12-23T05:01:26.840Z,15.82
2022-12-23T05:03:54.713Z,16.90
2022-12-23T05:06:22.657Z,16.27
2022-12-23T05:08:50.535Z,16.63
2022-12-23T05:11:18.388Z,16.88
2022-12-23T05:13:46.250Z,17.00
2022-12-23T05:16:14.125Z,16.30
2022-12-23T05:18:42.040Z,16.63
2022-12-23T05:21:10.167Z,15.57
2022-12-23T05:23:38.348Z,14.82
2022-12-23T05:26:06.438Z,13.85
2022-12-23T05:28:34.650Z,14.63
2022-12-23T05:31:04.684Z,13.55
2022-12-23T05:33:33.816Z,14.90
2022-12-23T05:36:02.177Z,14.85
2022-12-23T05:38:30.492Z,15.10
2022-12-23T05:40:58.663Z,14.77
2022-12-23T05:43:26.480Z,14.40
2022-12-23T05:45:54.385Z,14.40
2022-12-23T05:48:22.521Z,14.85
2022-12-23T05:50:52.599Z,14.32
2022-12-23T05:53:21.177Z,14.93
2022-12-23T05:55:49.004Z,15.38
2022-12-23T05:58:17.009Z,14.82
2022-12-23T06:00:44.982Z,15.20
2022-12-23T06:03:12.984Z,14.77
2022-12-23T06:05:43.444Z,15.63
2022-12-23T06:08:11.401Z,13.57
2022-12-23T06:10:39.243Z,14.40
2022-12-23T06:13:07.049Z,14.05
2022-12-23T06:15:34.999Z,14.40
2022-12-23T06:18:02.954Z,14.32
2022-12-23T06:20:30.787Z,15.18
2022-12-23T06:22:58.654Z,14.60
2022-12-23T06:25:26.775Z,14.57
2022-12-23T06:27:54.632Z,14.35
2022-12-23T06:30:22.977Z,13.55
2022-12-23T06:32:51.272Z,15.07
2022-12-23T06:35:19.467Z,13.30
2022-12-23T06:37:47.377Z,14.73
2022-12-23T06:40:15.283Z,12.05
2022-12-23T06:42:43.073Z,12.63
2022-12-23T06:45:11.251Z,12.70
2022-12-23T06:47:39.135Z,11.25
2022-12-23T06:50:07.471Z,10.43
2022-12-23T06:52:35.277Z,10.73
2022-12-23T06:55:03.105Z,11.27
2022-12-23T06:57:30.914Z,12.32
2022-12-23T06:59:58.655Z,11.05
2022-12-23T07:02:26.686Z,10.70
2022-12-23T07:04:54.603Z,11.07
2022-12-23T07:07:22.509Z,11.18
2022-12-23T07:09:50.474Z,10.85
2022-12-23T07:12:18.359Z,11.05
2022-12-23T07:14:46.270Z,11.27
2022-12-23T07:17:14.085Z,10.70
2022-12-23T07:19:41.909Z,12.25
2022-12-23T07:22:12.733Z,12.00
2022-12-23T07:24:40.543Z,11.82
2022-12-23T07:27:08.400Z,11.43
2022-12-23T07:29:36.206Z,11.13
2022-12-23T07:32:04.441Z,11.25
2022-12-23T07:34:32.414Z,11.60
2022-12-23T07:37:00.491Z,11.60
2022-12-23T07:39:28.678Z,11.13
2022-12-23T07:42:16.698Z,11.57
2022-12-23T07:44:44.491Z,10.63
2022-12-23T07:47:12.335Z,10.45
2022-12-23T07:49:40.312Z,9.95
2022-12-23T07:52:08.082Z,11.57
2022-12-23T07:54:35.972Z,11.73
2022-12-23T07:57:06.675Z,10.75
2022-12-23T07:59:34.552Z,12.05
2022-12-23T08:02:02.751Z,11.00
2022-12-23T08:04:30.926Z,10.55
2022-12-23T08:06:58.850Z,10.80
2022-12-23T08:09:26.690Z,11.65
2022-12-23T08:11:54.528Z,11.95
2022-12-23T08:14:23.213Z,12.23
2022-12-23T08:16:51.848Z,11.93
2022-12-23T08:19:19.840Z,13.43
2022-12-23T08:21:47.752Z,11.43
2022-12-23T08:24:15.565Z,12.43
2022-12-23T08:26:43.429Z,14.55
2022-12-23T08:29:11.276Z,13.07
2022-12-23T08:31:39.038Z,15.98
2022-12-23T08:34:06.832Z,14.55
2022-12-23T08:36:36.377Z,15.27
2022-12-23T08:39:08.360Z,13.75
2022-12-23T08:41:44.837Z,14.43
2022-12-23T08:44:13.705Z,14.35
2022-12-23T08:46:42.047Z,15.10
2022-12-23T08:49:10.873Z,14.88
2022-12-23T08:51:39.814Z,13.57
2022-12-23T08:54:07.999Z,13.98
2022-12-23T08:56:39.458Z,13.60
2022-12-23T08:59:16.594Z,14.95
2022-12-23T09:01:47.605Z,13.48
2022-12-23T09:04:15.828Z,13.70
2022-12-23T09:06:43.951Z,13.75
2022-12-23T09:09:14.260Z,15.30
2022-12-23T09:11:42.453Z,15.52
2022-12-23T09:14:11.567Z,15.60
2022-12-23T09:16:39.599Z,14.95
2022-12-23T09:19:07.884Z,14.60
2022-12-23T09:21:36.080Z,15.80
2022-12-23T09:24:04.113Z,17.23
2022-12-23T09:26:32.388Z,16.58
2022-12-23T09:29:00.632Z,17.35
2022-12-23T09:31:36.143Z,17.25
2022-12-23T09:34:05.572Z,16.42
2022-12-23T09:36:33.495Z,18.65
2022-12-23T09:39:01.397Z,18.67
2022-12-23T09:41:35.380Z,17.70
2022-12-23T09:44:27.869Z,18.13
2022-12-23T09:46:59.522Z,18.40
2022-12-23T09:49:28.146Z,17.42
2022-12-23T09:52:01.632Z,17.60
2022-12-23T09:54:41.821Z,18.20
2022-12-23T09:57:14.891Z,17.30
2022-12-23T09:59:58.311Z,18.05
2022-12-23T10:03:03.960Z,16.80
2022-12-23T10:05:58.588Z,18.75
2022-12-23T10:08:38.283Z,18.80
2022-12-23T10:11:16.827Z,18.90
2022-12-23T10:13:52.535Z,18.98
2022-12-23T10:16:24.181Z,19.63
2022-12-23T10:19:13.321Z,20.30
2022-12-23T10:21:50.387Z,21.38
2022-12-23T10:24:25.441Z,20.35
2022-12-23T10:27:02.092Z,18.65
2022-12-23T10:29:34.000Z,19.65
2022-12-23T10:32:08.005Z,20.80
2022-12-23T10:34:52.521Z,20.38
2022-12-23T10:37:43.841Z,18.88
2022-12-23T10:40:26.554Z,19.48
2022-12-23T10:43:12.170Z,18.88
2022-12-23T10:45:58.740Z,18.63
2022-12-23T10:48:45.090Z,19.63
2022-12-23T10:51:22.381Z,20.92
2022-12-23T10:54:02.084Z,22.15
2022-12-23T10:56:30.871Z,19.58
2022-12-23T10:59:01.198Z,19.42
2022-12-23T11:01:31.537Z,19.80
2022-12-23T11:04:22.487Z,20.58
2022-12-23T11:07:18.266Z,20.27
2022-12-23T11:09:50.720Z,20.58
2022-12-23T11:12:40.489Z,19.08
2022-12-23T11:15:32.542Z,25.08
2022-12-23T11:18:12.558Z,18.35
2022-12-23T11:20:44.387Z,18.48
2022-12-23T11:23:29.828Z,19.60
2022-12-23T11:26:13.564Z,14.82
2022-12-23T11:29:04.445Z,15.35
2022-12-23T11:31:35.488Z,14.93
2022-12-23T11:34:18.477Z,14.65
2022-12-23T11:37:01.785Z,14.18
2022-12-23T11:39:36.873Z,12.32
2022-12-23T11:42:23.014Z,12.98
2022-12-23T11:44:54.654Z,16.50
2022-12-23T11:47:41.542Z,14.15
2022-12-23T11:50:26.563Z,13.25
2022-12-23T11:53:13.774Z,12.85
2022-12-23T11:56:10.216Z,12.15
2022-12-23T11:58:47.925Z,12.18
2022-12-23T12:01:22.493Z,12.85
2022-12-23T12:04:05.450Z,14.68
2022-12-23T12:06:33.967Z,11.15
2022-12-23T12:09:04.457Z,12.23
2022-12-23T12:11:38.568Z,9.80
2022-12-23T12:14:08.434Z,9.95
2022-12-23T12:16:48.609Z,9.52
2022-12-23T12:19:35.728Z,9.88
2022-12-23T12:22:11.933Z,9.82
2022-12-23T12:24:48.950Z,10.00
2022-12-23T12:27:19.840Z,10.32
2022-12-23T12:29:52.707Z,10.20
2022-12-23T12:32:46.942Z,10.15
2022-12-23T12:35:49.494Z,12.30
2022-12-23T12:38:28.019Z,14.20
2022-12-23T12:41:08.472Z,13.30
2022-12-23T12:43:42.673Z,14.18
2022-12-23T12:46:28.747Z,12.18
2022-12-23T12:49:15.900Z,12.30
2022-12-23T12:51:51.475Z,13.95
2022-12-23T12:54:30.317Z,13.80
2022-12-23T12:56:59.397Z,14.85
2022-12-23T12:59:32.837Z,14.95
2022-12-23T13:02:15.827Z,16.02
2022-12-23T13:05:03.099Z,13.60
2022-12-23T13:08:04.495Z,13.00
2022-12-23T13:10:52.169Z,15.25
2022-12-23T13:13:42.139Z,14.25
2022-12-23T13:16:21.629Z,14.50
2022-12-23T13:19:14.092Z,13.73
2022-12-23T13:21:51.496Z,14.60
2022-12-23T13:24:50.830Z,14.65
2022-12-23T13:27:28.164Z,14.30
2022-12-23T13:30:06.638Z,15.05
2022-12-23T13:32:56.255Z,14.10
2022-12-23T13:35:24.226Z,14.32
2022-12-23T13:38:10.329Z,13.45
2022-12-23T13:40:42.791Z,13.50
2022-12-23T13:43:14.819Z,14.10
2022-12-23T13:45:44.542Z,14.77
2022-12-23T13:48:30.867Z,13.60
2022-12-23T13:51:47.234Z,14.52
2022-12-23T13:57:41.461Z,15.48
2022-12-23T14:00:18.495Z,14.57
2022-12-23T14:02:49.630Z,14.48
2022-12-23T14:05:32.993Z,22.70
2022-12-23T14:08:21.276Z,22.65
2022-12-23T14:11:00.555Z,20.92
2022-12-23T14:13:32.781Z,18.38
2022-12-23T14:16:32.495Z,14.13
2022-12-23T14:19:24.118Z,14.57
2022-12-23T14:22:30.382Z,13.45
2022-12-23T14:25:35.959Z,13.63
2022-12-23T14:28:46.141Z,13.02
2022-12-23T14:31:43.984Z,13.57
2022-12-23T14:34:22.371Z,16.98
2022-12-23T14:37:16.498Z,15.18
2022-12-23T14:39:44.983Z,14.80
2022-12-23T14:42:49.232Z,13.57
2022-12-23T14:45:42.111Z,12.15
2022-12-23T14:48:41.850Z,10.85
2022-12-23T14:51:09.649Z,13.02
2022-12-23T14:53:52.129Z,12.85
2022-12-23T14:56:20.017Z,14.02
2022-12-23T14:58:59.836Z,12.32
2022-12-23T15:01:38.558Z,12.02
2022-12-23T15:04:27.439Z,12.63
2022-12-23T15:07:00.217Z,13.65
2022-12-23T15:09:30.092Z,13.52
2022-12-23T15:12:04.838Z,13.52
2022-12-23T15:14:38.306Z,13.70
2022-12-23T15:17:38.617Z,13.93
2022-12-23T15:20:15.880Z,14.43
2022-12-23T15:22:46.549Z,13.43
2022-12-23T15:25:24.361Z,16.05
2022-12-23T15:28:00.889Z,18.88
2022-12-23T15:30:34.554Z,16.60
2022-12-23T15:33:16.062Z,12.60
2022-12-23T15:35:54.357Z,13.45
2022-12-23T15:38:27.229Z,13.77
2022-12-23T15:41:18.809Z,13.60
2022-12-23T15:43:46.736Z,14.02
2022-12-23T15:46:26.800Z,14.63
2022-12-23T15:48:56.946Z,14.43
2022-12-23T15:52:05.802Z,13.77
2022-12-23T15:54:38.894Z,12.90
2022-12-23T15:57:06.810Z,15.07
2022-12-23T15:59:39.407Z,14.18
2022-12-23T16:02:49.678Z,14.07
2022-12-23T16:05:05.336Z,15.45
2022-12-23T16:07:41.862Z,14.35
2022-12-23T16:10:18.828Z,13.70
2022-12-23T16:12:51.024Z,12.00
2022-12-23T16:15:28.321Z,14.20
2022-12-23T16:18:21.522Z,13.57
2022-12-23T16:20:53.462Z,13.95
2022-12-23T16:23:22.149Z,14.00
2022-12-23T16:25:52.745Z,14.60
2022-12-23T16:28:26.464Z,13.38
2022-12-23T16:30:56.811Z,14.02
2022-12-23T16:33:30.645Z,14.13
2022-12-23T16:36:14.851Z,13.93
2022-12-23T16:38:43.108Z,13.23
2022-12-23T16:41:11.210Z,12.68
2022-12-23T16:43:39.264Z,14.15
2022-12-23T16:46:08.575Z,12.68
2022-12-23T16:48:41.971Z,15.13
2022-12-23T16:51:14.700Z,14.13
2022-12-23T16:53:42.706Z,13.88
2022-12-23T16:56:15.277Z,16.00
2022-12-23T16:58:44.225Z,16.58
2022-12-23T17:01:23.718Z,17.08
2022-12-23T17:03:52.580Z,15.68
2022-12-23T17:06:21.169Z,15.27
2022-12-23T17:08:53.083Z,15.15
2022-12-23T17:11:24.077Z,16.55
2022-12-23T17:13:52.890Z,16.08
2022-12-23T17:16:24.417Z,17.08
2022-12-23T17:18:53.351Z,17.73
2022-12-23T17:21:30.597Z,16.67
2022-12-23T17:24:23.004Z,16.88
2022-12-23T17:26:51.897Z,15.98
2022-12-23T17:29:19.780Z,17.95
2022-12-23T17:31:48.763Z,16.75
2022-12-23T17:34:18.634Z,17.90
2022-12-23T17:36:50.354Z,17.23
2022-12-23T17:39:22.062Z,18.00
2022-12-23T17:41:50.294Z,18.20
2022-12-23T17:44:19.138Z,16.73
2022-12-23T17:46:47.680Z,18.10
2022-12-23T17:49:15.762Z,18.90
2022-12-23T17:51:44.014Z,18.63
2022-12-23T17:54:23.004Z,16.30
2022-12-23T17:56:51.795Z,19.02
2022-12-23T17:59:26.498Z,19.48
2022-12-23T18:01:54.820Z,16.80
2022-12-23T18:04:23.014Z,19.52
2022-12-23T18:06:51.200Z,18.52
2022-12-23T18:09:21.683Z,21.08
2022-12-23T18:11:50.827Z,19.92
2022-12-23T18:14:29.093Z,19.35
2022-12-23T18:16:58.697Z,18.17
2022-12-23T18:19:26.735Z,16.92
2022-12-23T18:21:54.869Z,18.38
2022-12-23T18:24:22.850Z,18.27
2022-12-23T18:26:50.803Z,18.88
2022-12-23T18:29:18.795Z,16.25
2022-12-23T18:31:51.611Z,16.27
2022-12-23T18:34:21.092Z,16.73
2022-12-23T18:36:51.916Z,15.73
2022-12-23T18:39:20.798Z,17.25
2022-12-23T18:41:51.538Z,16.60
2022-12-23T18:44:21.526Z,16.75
2022-12-23T18:46:50.612Z,17.35
2022-12-23T18:49:19.425Z,15.80
2022-12-23T18:51:47.584Z,16.67
2022-12-23T18:54:16.575Z,17.20
2022-12-23T18:56:45.281Z,15.65
2022-12-23T18:59:22.724Z,16.45
2022-12-23T19:01:53.314Z,14.05
2022-12-23T19:04:21.433Z,13.65
2022-12-23T19:06:49.448Z,14.68
2022-12-23T19:09:20.730Z,14.88
2022-12-23T19:11:51.327Z,13.27
2022-12-23T19:14:19.381Z,14.10
2022-12-23T19:16:51.483Z,14.05
2022-12-23T19:19:21.554Z,13.68
2022-12-23T19:21:49.648Z,8.48
2022-12-23T19:24:17.955Z,9.88
2022-12-23T19:26:45.937Z,10.45
2022-12-23T19:29:14.177Z,10.10
2022-12-23T19:31:42.592Z,10.50
2022-12-23T19:34:14.856Z,8.05
2022-12-23T19:36:44.287Z,10.00
2022-12-23T19:39:16.505Z,8.80
2022-12-23T19:41:45.032Z,9.63
2022-12-23T19:44:13.301Z,8.93
2022-12-23T19:46:41.583Z,8.43
2022-12-23T19:49:14.040Z,7.75
2022-12-23T19:51:45.871Z,8.25
2022-12-23T19:54:14.035Z,8.50
2022-12-23T19:56:42.152Z,7.15
2022-12-23T19:59:10.374Z,8.40
2022-12-23T20:01:38.362Z,7.95
2022-12-23T20:04:06.309Z,7.05
2022-12-23T20:06:39.378Z,6.32
2022-12-23T20:09:09.106Z,8.00
2022-12-23T20:11:40.020Z,7.72
2022-12-23T20:14:08.904Z,7.47
2022-12-23T20:16:37.772Z,7.78
2022-12-23T20:19:06.268Z,8.80
2022-12-23T20:21:35.513Z,8.77
2022-12-23T20:24:04.225Z,8.80
2022-12-23T20:26:33.189Z,9.40
2022-12-23T20:29:01.262Z,7.18
2022-12-23T20:31:32.622Z,9.13
2022-12-23T20:34:01.706Z,7.30
2022-12-23T20:36:32.383Z,8.07
2022-12-23T20:39:02.076Z,8.75
2022-12-23T20:41:31.245Z,7.57
2022-12-23T20:46:47.351Z,7.18
2022-12-23T20:49:15.439Z,7.65
2022-12-23T20:51:43.393Z,8.55
2022-12-23T20:54:11.411Z,6.50
2022-12-23T20:56:39.443Z,7.38
2022-12-23T20:59:07.381Z,6.43
2022-12-23T21:01:38.623Z,5.75
2022-12-23T21:04:12.721Z,6.82
2022-12-23T21:06:40.788Z,7.32
2022-12-23T21:09:12.254Z,6.93
2022-12-23T21:11:43.269Z,6.93
2022-12-23T21:14:12.229Z,6.15
2022-12-23T21:16:40.868Z,7.65
2022-12-23T21:19:13.486Z,7.25
2022-12-23T21:21:41.323Z,7.35
2022-12-23T21:24:10.560Z,7.75
2022-12-23T21:26:38.605Z,6.57
2022-12-23T21:29:08.872Z,6.07
2022-12-23T21:31:40.336Z,6.38
2022-12-23T21:34:10.883Z,5.97
2022-12-23T21:36:39.955Z,4.93
2022-12-23T21:39:12.666Z,6.40
2022-12-23T21:41:43.774Z,6.30
2022-12-23T21:44:16.177Z,5.72
2022-12-23T21:46:44.378Z,5.55
2022-12-23T21:49:13.000Z,6.35
2022-12-23T21:51:41.660Z,7.15
2022-12-23T21:54:11.209Z,5.00
2022-12-23T21:56:40.255Z,4.35
2022-12-23T21:59:13.128Z,4.60
2022-12-23T22:01:42.859Z,4.43
2022-12-23T22:04:10.975Z,4.25
2022-12-23T22:06:43.613Z,3.78
2022-12-23T22:09:15.433Z,4.15
2022-12-23T22:11:44.054Z,4.75
2022-12-23T22:14:14.684Z,3.63
2022-12-23T22:16:42.790Z,3.60
2022-12-23T22:19:12.607Z,3.05
2022-12-23T22:21:42.566Z,4.10
2022-12-23T22:24:10.937Z,4.53
2022-12-23T22:26:40.328Z,3.13
2022-12-23T22:29:08.421Z,4.00
2022-12-23T22:31:46.361Z,3.13
2022-12-23T22:34:19.973Z,2.70
2022-12-23T22:36:48.425Z,3.42
2022-12-23T22:39:21.496Z,4.32
2022-12-23T22:41:51.925Z,4.60
2022-12-23T22:44:20.604Z,5.03
2022-12-23T22:46:48.739Z,4.50
2022-12-23T22:49:17.148Z,3.53
2022-12-23T22:51:45.187Z,4.70
2022-12-23T22:54:13.358Z,3.25
2022-12-23T22:56:41.188Z,3.97
2022-12-23T22:59:24.418Z,4.45
2022-12-23T23:01:53.408Z,4.15
2022-12-23T23:04:22.438Z,4.43
2022-12-23T23:06:50.398Z,4.95
2022-12-23T23:09:20.291Z,4.60
2022-12-23T23:11:49.118Z,4.25
2022-12-23T23:14:17.170Z,5.40
2022-12-23T23:16:45.149Z,4.22
2022-12-23T23:19:15.029Z,4.40
2022-12-23T23:21:42.883Z,3.70
2022-12-23T23:24:11.958Z,3.60
2022-12-23T23:26:39.941Z,4.80
2022-12-23T23:29:07.770Z,4.63
2022-12-23T23:31:43.832Z,3.35
2022-12-23T23:34:13.309Z,3.63
2022-12-23T23:36:41.309Z,4.13
2022-12-23T23:39:10.834Z,3.85
2022-12-23T23:41:38.861Z,3.60
2022-12-23T23:44:06.877Z,2.75
2022-12-23T23:46:35.360Z,3.42
2022-12-23T23:49:03.633Z,3.58
2022-12-23T23:51:31.539Z,3.15
2022-12-23T23:53:59.312Z,2.78
2022-12-23T23:56:32.391Z,3.67
2022-12-23T23:59:04.086Z,3.67
